sensor_id;sensor_type;location;lat;lon;timestamp;P1;durP1;ratioP1;P2;durP2;ratioP2
3245;SDS011;1635;48.000;10.582;2022-07-23T00:00:47;2.00;;;1.90;;
3245;SDS011;1635;48.000;10.582;2022-07-23T00:03:15;2.63;;;2.47;;
3245;SDS011;1635;48.000;10.582;2022-07-23T00:05:42;3.90;;;3.80;;
3245;SDS011;1635;48.000;10.582;2022-07-23T00:08:11;3.73;;;3.53;;
3245;SDS011;1635;48.000;10.582;2022-07-23T00:10:40;3.70;;;3.40;;
3245;SDS011;1635;48.000;10.582;2022-07-23T00:13:09;5.73;;;5.20;;
3245;SDS011;1635;48.000;10.582;2022-07-23T00:15:36;4.30;;;3.50;;
3245;SDS011;1635;48.000;10.582;2022-07-23T00:18:04;3.10;;;3.00;;
3245;SDS011;1635;48.000;10.582;2022-07-23T00:20:32;5.37;;;4.83;;
3245;SDS011;1635;48.000;10.582;2022-07-23T00:23:00;7.43;;;6.77;;
3245;SDS011;1635;48.000;10.582;2022-07-23T00:25:28;10.23;;;8.97;;
3245;SDS011;1635;48.000;10.582;2022-07-23T00:28:01;18.27;;;17.37;;
3245;SDS011;1635;48.000;10.582;2022-07-23T00:30:30;13.47;;;12.57;;
3245;SDS011;1635;48.000;10.582;2022-07-23T00:33:00;8.50;;;7.87;;
3245;SDS011;1635;48.000;10.582;2022-07-23T00:35:33;6.77;;;5.13;;
3245;SDS011;1635;48.000;10.582;2022-07-23T00:38:02;5.77;;;5.47;;
3245;SDS011;1635;48.000;10.582;2022-07-23T00:40:32;29.00;;;16.47;;
3245;SDS011;1635;48.000;10.582;2022-07-23T00:43:01;6.17;;;5.97;;
3245;SDS011;1635;48.000;10.582;2022-07-23T00:45:30;5.80;;;5.60;;
3245;SDS011;1635;48.000;10.582;2022-07-23T00:47:59;6.83;;;6.60;;
3245;SDS011;1635;48.000;10.582;2022-07-23T00:50:28;6.90;;;6.70;;
3245;SDS011;1635;48.000;10.582;2022-07-23T00:52:57;5.70;;;5.60;;
3245;SDS011;1635;48.000;10.582;2022-07-23T00:55:25;5.20;;;5.10;;
3245;SDS011;1635;48.000;10.582;2022-07-23T00:57:53;5.57;;;5.37;;
3245;SDS011;1635;48.000;10.582;2022-07-23T01:00:25;5.20;;;5.00;;
3245;SDS011;1635;48.000;10.582;2022-07-23T01:02:52;5.00;;;4.80;;
3245;SDS011;1635;48.000;10.582;2022-07-23T01:05:20;5.20;;;5.10;;
3245;SDS011;1635;48.000;10.582;2022-07-23T01:07:50;4.60;;;4.50;;
3245;SDS011;1635;48.000;10.582;2022-07-23T01:10:22;4.37;;;4.27;;
3245;SDS011;1635;48.000;10.582;2022-07-23T01:13:06;5.20;;;5.00;;
3245;SDS011;1635;48.000;10.582;2022-07-23T01:15:36;5.03;;;4.93;;
3245;SDS011;1635;48.000;10.582;2022-07-23T01:18:06;5.23;;;5.13;;
3245;SDS011;1635;48.000;10.582;2022-07-23T01:20:37;5.20;;;5.10;;
3245;SDS011;1635;48.000;10.582;2022-07-23T01:23:06;5.27;;;5.17;;
3245;SDS011;1635;48.000;10.582;2022-07-23T01:25:35;4.90;;;4.80;;
3245;SDS011;1635;48.000;10.582;2022-07-23T01:28:05;5.70;;;5.60;;
3245;SDS011;1635;48.000;10.582;2022-07-23T01:30:33;5.43;;;5.33;;
3245;SDS011;1635;48.000;10.582;2022-07-23T01:33:04;5.37;;;5.27;;
3245;SDS011;1635;48.000;10.582;2022-07-23T01:35:32;5.43;;;5.33;;
3245;SDS011;1635;48.000;10.582;2022-07-23T01:38:04;4.73;;;4.53;;
3245;SDS011;1635;48.000;10.582;2022-07-23T01:40:32;5.43;;;5.30;;
3245;SDS011;1635;48.000;10.582;2022-07-23T01:43:00;5.63;;;5.43;;
3245;SDS011;1635;48.000;10.582;2022-07-23T01:45:32;4.57;;;4.47;;
3245;SDS011;1635;48.000;10.582;2022-07-23T01:47:59;7.03;;;6.53;;
3245;SDS011;1635;48.000;10.582;2022-07-23T01:50:29;6.40;;;6.20;;
3245;SDS011;1635;48.000;10.582;2022-07-23T01:53:06;5.20;;;5.10;;
3245;SDS011;1635;48.000;10.582;2022-07-23T01:55:36;15.20;;;7.50;;
3245;SDS011;1635;48.000;10.582;2022-07-23T01:58:04;4.80;;;4.70;;
3245;SDS011;1635;48.000;10.582;2022-07-23T02:00:33;4.13;;;4.03;;
3245;SDS011;1635;48.000;10.582;2022-07-23T02:03:01;4.77;;;4.67;;
3245;SDS011;1635;48.000;10.582;2022-07-23T02:05:30;5.77;;;5.67;;
3245;SDS011;1635;48.000;10.582;2022-07-23T02:07:59;6.00;;;5.80;;
3245;SDS011;1635;48.000;10.582;2022-07-23T02:10:32;5.10;;;5.00;;
3245;SDS011;1635;48.000;10.582;2022-07-23T02:13:03;5.30;;;5.10;;
3245;SDS011;1635;48.000;10.582;2022-07-23T02:15:31;3.83;;;3.73;;
3245;SDS011;1635;48.000;10.582;2022-07-23T02:17:59;7.27;;;6.83;;
3245;SDS011;1635;48.000;10.582;2022-07-23T02:20:28;5.57;;;5.30;;
3245;SDS011;1635;48.000;10.582;2022-07-23T02:22:55;6.90;;;6.70;;
3245;SDS011;1635;48.000;10.582;2022-07-23T02:25:23;4.70;;;4.60;;
3245;SDS011;1635;48.000;10.582;2022-07-23T02:27:55;4.87;;;4.77;;
3245;SDS011;1635;48.000;10.582;2022-07-23T02:30:23;4.87;;;4.77;;
3245;SDS011;1635;48.000;10.582;2022-07-23T02:32:51;5.50;;;5.40;;
3245;SDS011;1635;48.000;10.582;2022-07-23T02:35:19;5.77;;;5.60;;
3245;SDS011;1635;48.000;10.582;2022-07-23T02:37:46;4.40;;;4.30;;
3245;SDS011;1635;48.000;10.582;2022-07-23T02:40:17;4.50;;;4.40;;
3245;SDS011;1635;48.000;10.582;2022-07-23T02:42:46;4.50;;;4.40;;
3245;SDS011;1635;48.000;10.582;2022-07-23T02:45:15;4.80;;;4.70;;
3245;SDS011;1635;48.000;10.582;2022-07-23T02:47:43;4.57;;;4.47;;
3245;SDS011;1635;48.000;10.582;2022-07-23T02:50:11;4.17;;;4.07;;
3245;SDS011;1635;48.000;10.582;2022-07-23T02:52:39;5.77;;;5.63;;
3245;SDS011;1635;48.000;10.582;2022-07-23T02:55:08;5.60;;;5.50;;
3245;SDS011;1635;48.000;10.582;2022-07-23T02:57:35;5.37;;;5.27;;
3245;SDS011;1635;48.000;10.582;2022-07-23T03:00:04;5.07;;;4.97;;
3245;SDS011;1635;48.000;10.582;2022-07-23T03:02:33;6.93;;;6.57;;
3245;SDS011;1635;48.000;10.582;2022-07-23T03:05:02;6.10;;;6.00;;
3245;SDS011;1635;48.000;10.582;2022-07-23T03:07:30;5.83;;;5.73;;
3245;SDS011;1635;48.000;10.582;2022-07-23T03:09:58;10.53;;;8.00;;
3245;SDS011;1635;48.000;10.582;2022-07-23T03:12:26;6.00;;;5.90;;
3245;SDS011;1635;48.000;10.582;2022-07-23T03:14:55;5.70;;;5.60;;
3245;SDS011;1635;48.000;10.582;2022-07-23T03:17:23;5.40;;;5.30;;
3245;SDS011;1635;48.000;10.582;2022-07-23T03:19:51;4.93;;;4.83;;
3245;SDS011;1635;48.000;10.582;2022-07-23T03:22:19;5.37;;;5.27;;
3245;SDS011;1635;48.000;10.582;2022-07-23T03:24:47;5.20;;;5.10;;
3245;SDS011;1635;48.000;10.582;2022-07-23T03:27:25;5.00;;;4.90;;
3245;SDS011;1635;48.000;10.582;2022-07-23T03:29:55;7.17;;;5.60;;
3245;SDS011;1635;48.000;10.582;2022-07-23T03:32:24;4.97;;;4.87;;
3245;SDS011;1635;48.000;10.582;2022-07-23T03:34:52;5.23;;;5.13;;
3245;SDS011;1635;48.000;10.582;2022-07-23T03:37:21;5.03;;;4.93;;
3245;SDS011;1635;48.000;10.582;2022-07-23T03:39:49;4.53;;;4.43;;
3245;SDS011;1635;48.000;10.582;2022-07-23T03:42:17;6.30;;;6.00;;
3245;SDS011;1635;48.000;10.582;2022-07-23T03:44:46;4.47;;;4.37;;
3245;SDS011;1635;48.000;10.582;2022-07-23T03:47:14;5.63;;;5.53;;
3245;SDS011;1635;48.000;10.582;2022-07-23T03:49:43;4.20;;;4.10;;
3245;SDS011;1635;48.000;10.582;2022-07-23T03:52:11;4.50;;;4.40;;
3245;SDS011;1635;48.000;10.582;2022-07-23T03:54:38;4.40;;;4.30;;
3245;SDS011;1635;48.000;10.582;2022-07-23T03:57:07;4.43;;;4.33;;
3245;SDS011;1635;48.000;10.582;2022-07-23T03:59:35;4.80;;;4.70;;
3245;SDS011;1635;48.000;10.582;2022-07-23T04:02:03;4.23;;;4.13;;
3245;SDS011;1635;48.000;10.582;2022-07-23T04:04:31;4.27;;;4.17;;
3245;SDS011;1635;48.000;10.582;2022-07-23T04:07:00;7.43;;;6.87;;
3245;SDS011;1635;48.000;10.582;2022-07-23T04:09:30;4.80;;;4.70;;
3245;SDS011;1635;48.000;10.582;2022-07-23T04:11:59;4.30;;;4.20;;
3245;SDS011;1635;48.000;10.582;2022-07-23T04:14:27;3.63;;;3.53;;
3245;SDS011;1635;48.000;10.582;2022-07-23T04:16:57;4.07;;;3.97;;
3245;SDS011;1635;48.000;10.582;2022-07-23T04:19:25;4.20;;;4.10;;
3245;SDS011;1635;48.000;10.582;2022-07-23T04:22:01;3.90;;;3.80;;
3245;SDS011;1635;48.000;10.582;2022-07-23T04:24:31;4.10;;;4.00;;
3245;SDS011;1635;48.000;10.582;2022-07-23T04:27:01;4.30;;;4.20;;
3245;SDS011;1635;48.000;10.582;2022-07-23T04:29:30;4.10;;;4.00;;
3245;SDS011;1635;48.000;10.582;2022-07-23T04:31:59;4.20;;;4.10;;
3245;SDS011;1635;48.000;10.582;2022-07-23T04:34:27;5.00;;;4.80;;
3245;SDS011;1635;48.000;10.582;2022-07-23T04:36:56;4.00;;;3.90;;
3245;SDS011;1635;48.000;10.582;2022-07-23T04:39:25;3.70;;;3.60;;
3245;SDS011;1635;48.000;10.582;2022-07-23T04:41:53;4.00;;;3.80;;
3245;SDS011;1635;48.000;10.582;2022-07-23T04:44:21;4.27;;;4.17;;
3245;SDS011;1635;48.000;10.582;2022-07-23T04:46:49;4.10;;;4.00;;
3245;SDS011;1635;48.000;10.582;2022-07-23T04:49:18;3.63;;;3.53;;
3245;SDS011;1635;48.000;10.582;2022-07-23T04:51:47;4.93;;;4.83;;
3245;SDS011;1635;48.000;10.582;2022-07-23T04:54:15;4.20;;;4.10;;
3245;SDS011;1635;48.000;10.582;2022-07-23T04:56:45;4.37;;;4.23;;
3245;SDS011;1635;48.000;10.582;2022-07-23T04:59:13;4.33;;;4.23;;
3245;SDS011;1635;48.000;10.582;2022-07-23T05:01:43;4.80;;;4.70;;
3245;SDS011;1635;48.000;10.582;2022-07-23T05:04:10;4.10;;;4.00;;
3245;SDS011;1635;48.000;10.582;2022-07-23T05:06:39;3.80;;;3.70;;
3245;SDS011;1635;48.000;10.582;2022-07-23T05:09:07;8.63;;;7.87;;
3245;SDS011;1635;48.000;10.582;2022-07-23T05:11:35;4.73;;;4.63;;
3245;SDS011;1635;48.000;10.582;2022-07-23T05:14:02;20.03;;;5.43;;
3245;SDS011;1635;48.000;10.582;2022-07-23T05:16:30;3.53;;;3.43;;
3245;SDS011;1635;48.000;10.582;2022-07-23T05:19:03;4.10;;;3.90;;
3245;SDS011;1635;48.000;10.582;2022-07-23T05:21:35;5.57;;;5.43;;
3245;SDS011;1635;48.000;10.582;2022-07-23T05:24:02;7.77;;;6.40;;
3245;SDS011;1635;48.000;10.582;2022-07-23T05:26:31;6.13;;;5.93;;
3245;SDS011;1635;48.000;10.582;2022-07-23T05:28:58;4.33;;;4.23;;
3245;SDS011;1635;48.000;10.582;2022-07-23T05:31:26;4.10;;;4.00;;
3245;SDS011;1635;48.000;10.582;2022-07-23T05:33:57;4.33;;;4.23;;
3245;SDS011;1635;48.000;10.582;2022-07-23T05:36:26;5.67;;;5.57;;
3245;SDS011;1635;48.000;10.582;2022-07-23T05:38:56;6.33;;;5.93;;
3245;SDS011;1635;48.000;10.582;2022-07-23T05:41:28;5.37;;;5.27;;
3245;SDS011;1635;48.000;10.582;2022-07-23T05:43:56;11.07;;;7.70;;
3245;SDS011;1635;48.000;10.582;2022-07-23T05:46:26;5.90;;;5.80;;
3245;SDS011;1635;48.000;10.582;2022-07-23T05:48:58;7.13;;;6.93;;
3245;SDS011;1635;48.000;10.582;2022-07-23T05:51:49;8.10;;;7.60;;
3245;SDS011;1635;48.000;10.582;2022-07-23T05:54:26;7.00;;;6.77;;
3245;SDS011;1635;48.000;10.582;2022-07-23T05:56:53;6.63;;;6.50;;
3245;SDS011;1635;48.000;10.582;2022-07-23T05:59:22;7.40;;;7.10;;
3245;SDS011;1635;48.000;10.582;2022-07-23T06:01:51;7.13;;;6.93;;
3245;SDS011;1635;48.000;10.582;2022-07-23T06:04:19;6.70;;;6.37;;
3245;SDS011;1635;48.000;10.582;2022-07-23T06:07:02;6.30;;;6.20;;
3245;SDS011;1635;48.000;10.582;2022-07-23T06:09:30;6.70;;;6.50;;
3245;SDS011;1635;48.000;10.582;2022-07-23T06:11:58;6.17;;;5.97;;
3245;SDS011;1635;48.000;10.582;2022-07-23T06:14:27;6.20;;;6.00;;
3245;SDS011;1635;48.000;10.582;2022-07-23T06:16:57;6.30;;;6.10;;
3245;SDS011;1635;48.000;10.582;2022-07-23T06:19:27;5.00;;;4.90;;
3245;SDS011;1635;48.000;10.582;2022-07-23T06:21:55;4.23;;;4.13;;
3245;SDS011;1635;48.000;10.582;2022-07-23T06:24:23;4.60;;;4.50;;
3245;SDS011;1635;48.000;10.582;2022-07-23T06:26:52;4.70;;;4.60;;
3245;SDS011;1635;48.000;10.582;2022-07-23T06:29:20;4.33;;;4.23;;
3245;SDS011;1635;48.000;10.582;2022-07-23T06:31:47;5.23;;;5.13;;
3245;SDS011;1635;48.000;10.582;2022-07-23T06:34:15;4.70;;;4.60;;
3245;SDS011;1635;48.000;10.582;2022-07-23T06:36:43;5.73;;;5.63;;
3245;SDS011;1635;48.000;10.582;2022-07-23T06:39:11;6.00;;;5.90;;
3245;SDS011;1635;48.000;10.582;2022-07-23T06:41:44;5.73;;;5.63;;
3245;SDS011;1635;48.000;10.582;2022-07-23T06:44:16;7.43;;;7.07;;
3245;SDS011;1635;48.000;10.582;2022-07-23T06:46:48;9.67;;;9.17;;
3245;SDS011;1635;48.000;10.582;2022-07-23T06:49:15;8.63;;;8.33;;
3245;SDS011;1635;48.000;10.582;2022-07-23T06:51:43;7.70;;;7.50;;
3245;SDS011;1635;48.000;10.582;2022-07-23T06:54:10;7.00;;;6.80;;
3245;SDS011;1635;48.000;10.582;2022-07-23T06:56:38;6.90;;;6.80;;
3245;SDS011;1635;48.000;10.582;2022-07-23T06:59:06;7.57;;;7.27;;
3245;SDS011;1635;48.000;10.582;2022-07-23T07:01:34;6.53;;;6.40;;
3245;SDS011;1635;48.000;10.582;2022-07-23T07:04:02;6.17;;;6.07;;
3245;SDS011;1635;48.000;10.582;2022-07-23T07:06:29;5.70;;;5.60;;
3245;SDS011;1635;48.000;10.582;2022-07-23T07:08:57;5.50;;;5.40;;
3245;SDS011;1635;48.000;10.582;2022-07-23T07:11:25;5.30;;;5.20;;
3245;SDS011;1635;48.000;10.582;2022-07-23T07:13:52;6.03;;;5.93;;
3245;SDS011;1635;48.000;10.582;2022-07-23T07:16:20;7.47;;;7.27;;
3245;SDS011;1635;48.000;10.582;2022-07-23T07:18:49;6.50;;;6.40;;
3245;SDS011;1635;48.000;10.582;2022-07-23T07:21:16;6.23;;;6.13;;
3245;SDS011;1635;48.000;10.582;2022-07-23T07:23:45;6.60;;;6.50;;
3245;SDS011;1635;48.000;10.582;2022-07-23T07:26:12;8.83;;;8.53;;
3245;SDS011;1635;48.000;10.582;2022-07-23T07:28:40;6.70;;;6.60;;
3245;SDS011;1635;48.000;10.582;2022-07-23T07:31:07;6.93;;;6.83;;
3245;SDS011;1635;48.000;10.582;2022-07-23T07:33:36;7.00;;;6.90;;
3245;SDS011;1635;48.000;10.582;2022-07-23T07:36:04;7.83;;;7.63;;
3245;SDS011;1635;48.000;10.582;2022-07-23T07:38:33;7.50;;;7.40;;
3245;SDS011;1635;48.000;10.582;2022-07-23T07:41:00;7.80;;;7.60;;
3245;SDS011;1635;48.000;10.582;2022-07-23T07:43:28;8.87;;;8.67;;
3245;SDS011;1635;48.000;10.582;2022-07-23T07:45:56;10.93;;;10.43;;
3245;SDS011;1635;48.000;10.582;2022-07-23T07:48:24;9.50;;;9.30;;
3245;SDS011;1635;48.000;10.582;2022-07-23T07:50:52;10.10;;;9.80;;
3245;SDS011;1635;48.000;10.582;2022-07-23T07:53:20;9.80;;;9.53;;
3245;SDS011;1635;48.000;10.582;2022-07-23T07:55:49;8.87;;;8.67;;
3245;SDS011;1635;48.000;10.582;2022-07-23T07:58:17;9.10;;;8.90;;
3245;SDS011;1635;48.000;10.582;2022-07-23T08:00:46;10.03;;;9.63;;
3245;SDS011;1635;48.000;10.582;2022-07-23T08:03:14;8.80;;;8.40;;
3245;SDS011;1635;48.000;10.582;2022-07-23T08:05:42;8.40;;;8.17;;
3245;SDS011;1635;48.000;10.582;2022-07-23T08:08:10;8.23;;;8.03;;
3245;SDS011;1635;48.000;10.582;2022-07-23T08:10:42;11.00;;;10.60;;
3245;SDS011;1635;48.000;10.582;2022-07-23T08:13:14;10.40;;;10.10;;
3245;SDS011;1635;48.000;10.582;2022-07-23T08:15:42;11.80;;;11.50;;
3245;SDS011;1635;48.000;10.582;2022-07-23T08:18:13;11.30;;;11.00;;
3245;SDS011;1635;48.000;10.582;2022-07-23T08:20:41;12.20;;;11.80;;
3245;SDS011;1635;48.000;10.582;2022-07-23T08:23:10;13.87;;;13.33;;
3245;SDS011;1635;48.000;10.582;2022-07-23T08:25:38;14.50;;;12.57;;
3245;SDS011;1635;48.000;10.582;2022-07-23T08:28:09;13.57;;;12.87;;
3245;SDS011;1635;48.000;10.582;2022-07-23T08:30:39;12.00;;;11.70;;
3245;SDS011;1635;48.000;10.582;2022-07-23T08:33:12;10.97;;;10.67;;
3245;SDS011;1635;48.000;10.582;2022-07-23T08:36:01;11.57;;;11.27;;
3245;SDS011;1635;48.000;10.582;2022-07-23T08:38:31;11.87;;;11.37;;
3245;SDS011;1635;48.000;10.582;2022-07-23T08:40:59;10.30;;;10.00;;
3245;SDS011;1635;48.000;10.582;2022-07-23T08:43:29;11.03;;;10.73;;
3245;SDS011;1635;48.000;10.582;2022-07-23T08:46:00;10.23;;;9.83;;
3245;SDS011;1635;48.000;10.582;2022-07-23T08:48:29;10.00;;;9.70;;
3245;SDS011;1635;48.000;10.582;2022-07-23T08:51:01;9.17;;;8.90;;
3245;SDS011;1635;48.000;10.582;2022-07-23T08:53:33;8.60;;;8.10;;
3245;SDS011;1635;48.000;10.582;2022-07-23T08:56:07;7.00;;;6.80;;
3245;SDS011;1635;48.000;10.582;2022-07-23T08:58:35;7.03;;;6.83;;
3245;SDS011;1635;48.000;10.582;2022-07-23T09:01:03;6.03;;;5.83;;
3245;SDS011;1635;48.000;10.582;2022-07-23T09:03:33;6.10;;;5.70;;
3245;SDS011;1635;48.000;10.582;2022-07-23T09:06:02;5.30;;;5.00;;
3245;SDS011;1635;48.000;10.582;2022-07-23T09:08:39;4.30;;;4.20;;
3245;SDS011;1635;48.000;10.582;2022-07-23T09:11:12;4.10;;;4.00;;
3245;SDS011;1635;48.000;10.582;2022-07-23T09:13:49;5.10;;;4.90;;
3245;SDS011;1635;48.000;10.582;2022-07-23T09:16:23;4.50;;;4.27;;
3245;SDS011;1635;48.000;10.582;2022-07-23T09:18:52;4.10;;;3.90;;
3245;SDS011;1635;48.000;10.582;2022-07-23T09:21:30;3.70;;;3.60;;
3245;SDS011;1635;48.000;10.582;2022-07-23T09:24:00;4.67;;;4.47;;
3245;SDS011;1635;48.000;10.582;2022-07-23T09:26:39;6.13;;;5.63;;
3245;SDS011;1635;48.000;10.582;2022-07-23T09:31:52;3.70;;;3.60;;
3245;SDS011;1635;48.000;10.582;2022-07-23T09:34:22;3.30;;;3.20;;
3245;SDS011;1635;48.000;10.582;2022-07-23T09:36:56;4.67;;;4.47;;
3245;SDS011;1635;48.000;10.582;2022-07-23T09:39:33;5.27;;;4.73;;
3245;SDS011;1635;48.000;10.582;2022-07-23T09:42:20;4.07;;;3.87;;
3245;SDS011;1635;48.000;10.582;2022-07-23T09:44:51;3.57;;;3.47;;
3245;SDS011;1635;48.000;10.582;2022-07-23T09:47:25;4.30;;;4.10;;
3245;SDS011;1635;48.000;10.582;2022-07-23T09:49:59;3.23;;;3.13;;
3245;SDS011;1635;48.000;10.582;2022-07-23T09:52:46;5.10;;;4.80;;
3245;SDS011;1635;48.000;10.582;2022-07-23T09:55:16;3.20;;;3.10;;
3245;SDS011;1635;48.000;10.582;2022-07-23T09:57:46;2.50;;;2.40;;
3245;SDS011;1635;48.000;10.582;2022-07-23T10:00:22;4.10;;;3.90;;
3245;SDS011;1635;48.000;10.582;2022-07-23T10:02:51;2.60;;;2.50;;
3245;SDS011;1635;48.000;10.582;2022-07-23T10:05:47;2.80;;;2.70;;
3245;SDS011;1635;48.000;10.582;2022-07-23T10:08:41;3.03;;;2.93;;
3245;SDS011;1635;48.000;10.582;2022-07-23T10:11:44;2.63;;;2.53;;
3245;SDS011;1635;48.000;10.582;2022-07-23T10:14:27;2.20;;;2.10;;
3245;SDS011;1635;48.000;10.582;2022-07-23T10:17:02;2.60;;;2.50;;
3245;SDS011;1635;48.000;10.582;2022-07-23T10:19:32;4.53;;;4.33;;
3245;SDS011;1635;48.000;10.582;2022-07-23T10:22:00;3.90;;;3.60;;
3245;SDS011;1635;48.000;10.582;2022-07-23T10:30:56;3.70;;;3.50;;
3245;SDS011;1635;48.000;10.582;2022-07-23T10:33:32;2.30;;;2.20;;
3245;SDS011;1635;48.000;10.582;2022-07-23T10:36:16;3.00;;;2.90;;
3245;SDS011;1635;48.000;10.582;2022-07-23T10:38:52;2.20;;;2.10;;
3245;SDS011;1635;48.000;10.582;2022-07-23T10:41:35;2.20;;;2.10;;
3245;SDS011;1635;48.000;10.582;2022-07-23T10:44:16;2.40;;;2.30;;
3245;SDS011;1635;48.000;10.582;2022-07-23T10:49:31;2.13;;;2.03;;
3245;SDS011;1635;48.000;10.582;2022-07-23T10:54:44;2.80;;;2.60;;
3245;SDS011;1635;48.000;10.582;2022-07-23T10:57:14;3.17;;;2.97;;
3245;SDS011;1635;48.000;10.582;2022-07-23T11:02:36;2.27;;;2.17;;
3245;SDS011;1635;48.000;10.582;2022-07-23T11:07:37;3.60;;;3.50;;
3245;SDS011;1635;48.000;10.582;2022-07-23T11:10:46;2.73;;;2.53;;
3245;SDS011;1635;48.000;10.582;2022-07-23T11:26:44;3.07;;;2.97;;
3245;SDS011;1635;48.000;10.582;2022-07-23T11:32:01;2.10;;;2.00;;
3245;SDS011;1635;48.000;10.582;2022-07-23T11:34:40;2.87;;;2.77;;
3245;SDS011;1635;48.000;10.582;2022-07-23T11:37:11;3.73;;;3.43;;
3245;SDS011;1635;48.000;10.582;2022-07-23T11:39:56;2.97;;;2.77;;
3245;SDS011;1635;48.000;10.582;2022-07-23T11:42:25;2.30;;;2.20;;
3245;SDS011;1635;48.000;10.582;2022-07-23T11:44:58;2.20;;;2.10;;
3245;SDS011;1635;48.000;10.582;2022-07-23T11:47:26;2.20;;;2.10;;
3245;SDS011;1635;48.000;10.582;2022-07-23T11:49:59;3.23;;;3.13;;
3245;SDS011;1635;48.000;10.582;2022-07-23T11:52:28;2.40;;;2.30;;
3245;SDS011;1635;48.000;10.582;2022-07-23T11:55:03;3.07;;;2.97;;
3245;SDS011;1635;48.000;10.582;2022-07-23T11:57:34;3.47;;;2.50;;
3245;SDS011;1635;48.000;10.582;2022-07-23T12:00:16;4.40;;;3.33;;
3245;SDS011;1635;48.000;10.582;2022-07-23T12:02:56;3.83;;;2.73;;
3245;SDS011;1635;48.000;10.582;2022-07-23T12:05:33;3.20;;;3.00;;
3245;SDS011;1635;48.000;10.582;2022-07-23T12:08:04;2.20;;;2.10;;
3245;SDS011;1635;48.000;10.582;2022-07-23T12:10:37;2.10;;;2.00;;
3245;SDS011;1635;48.000;10.582;2022-07-23T12:13:15;2.10;;;2.00;;
3245;SDS011;1635;48.000;10.582;2022-07-23T12:15:46;3.30;;;3.10;;
3245;SDS011;1635;48.000;10.582;2022-07-23T12:18:18;2.70;;;2.50;;
3245;SDS011;1635;48.000;10.582;2022-07-23T12:20:49;2.10;;;2.00;;
3245;SDS011;1635;48.000;10.582;2022-07-23T12:23:22;2.20;;;2.10;;
3245;SDS011;1635;48.000;10.582;2022-07-23T12:25:52;2.00;;;1.90;;
3245;SDS011;1635;48.000;10.582;2022-07-23T12:28:22;3.90;;;3.70;;
3245;SDS011;1635;48.000;10.582;2022-07-23T12:30:57;3.23;;;3.03;;
3245;SDS011;1635;48.000;10.582;2022-07-23T12:33:26;4.17;;;3.40;;
3245;SDS011;1635;48.000;10.582;2022-07-23T12:35:59;3.70;;;3.53;;
3245;SDS011;1635;48.000;10.582;2022-07-23T12:38:40;4.13;;;3.93;;
3245;SDS011;1635;48.000;10.582;2022-07-23T12:41:10;2.47;;;2.37;;
3245;SDS011;1635;48.000;10.582;2022-07-23T12:43:45;3.07;;;2.93;;
3245;SDS011;1635;48.000;10.582;2022-07-23T12:46:17;2.47;;;2.37;;
3245;SDS011;1635;48.000;10.582;2022-07-23T12:48:51;3.40;;;3.20;;
3245;SDS011;1635;48.000;10.582;2022-07-23T12:53:50;2.10;;;2.00;;
3245;SDS011;1635;48.000;10.582;2022-07-23T12:56:27;1.83;;;1.73;;
3245;SDS011;1635;48.000;10.582;2022-07-23T12:58:59;2.60;;;2.40;;
3245;SDS011;1635;48.000;10.582;2022-07-23T13:01:35;3.17;;;3.07;;
3245;SDS011;1635;48.000;10.582;2022-07-23T13:04:07;2.23;;;2.13;;
3245;SDS011;1635;48.000;10.582;2022-07-23T13:06:56;2.50;;;2.40;;
3245;SDS011;1635;48.000;10.582;2022-07-23T13:09:32;3.53;;;2.30;;
3245;SDS011;1635;48.000;10.582;2022-07-23T13:12:08;2.90;;;2.57;;
3245;SDS011;1635;48.000;10.582;2022-07-23T13:14:38;1.80;;;1.70;;
3245;SDS011;1635;48.000;10.582;2022-07-23T13:17:05;1.50;;;1.50;;
3245;SDS011;1635;48.000;10.582;2022-07-23T13:19:34;3.07;;;2.53;;
3245;SDS011;1635;48.000;10.582;2022-07-23T13:22:01;1.93;;;1.83;;
3245;SDS011;1635;48.000;10.582;2022-07-23T13:24:37;2.07;;;1.97;;
3245;SDS011;1635;48.000;10.582;2022-07-23T13:27:06;3.17;;;3.00;;
3245;SDS011;1635;48.000;10.582;2022-07-23T13:29:39;2.33;;;2.23;;
3245;SDS011;1635;48.000;10.582;2022-07-23T13:32:08;1.83;;;1.80;;
3245;SDS011;1635;48.000;10.582;2022-07-23T13:34:40;1.93;;;1.83;;
3245;SDS011;1635;48.000;10.582;2022-07-23T13:37:08;3.07;;;2.90;;
3245;SDS011;1635;48.000;10.582;2022-07-23T13:39:36;6.10;;;4.60;;
3245;SDS011;1635;48.000;10.582;2022-07-23T13:42:05;2.40;;;2.30;;
3245;SDS011;1635;48.000;10.582;2022-07-23T13:44:34;2.50;;;2.33;;
3245;SDS011;1635;48.000;10.582;2022-07-23T13:47:03;2.20;;;2.10;;
3245;SDS011;1635;48.000;10.582;2022-07-23T13:49:32;4.03;;;3.83;;
3245;SDS011;1635;48.000;10.582;2022-07-23T13:52:02;3.30;;;3.20;;
3245;SDS011;1635;48.000;10.582;2022-07-23T13:54:34;2.30;;;1.90;;
3245;SDS011;1635;48.000;10.582;2022-07-23T13:57:03;2.80;;;2.70;;
3245;SDS011;1635;48.000;10.582;2022-07-23T13:59:32;2.63;;;1.87;;
3245;SDS011;1635;48.000;10.582;2022-07-23T14:02:00;2.30;;;2.20;;
3245;SDS011;1635;48.000;10.582;2022-07-23T14:04:51;2.07;;;1.97;;
3245;SDS011;1635;48.000;10.582;2022-07-23T14:07:19;2.23;;;2.13;;
3245;SDS011;1635;48.000;10.582;2022-07-23T14:09:49;3.60;;;3.30;;
3245;SDS011;1635;48.000;10.582;2022-07-23T14:12:17;3.27;;;3.07;;
3245;SDS011;1635;48.000;10.582;2022-07-23T14:14:49;2.30;;;2.20;;
3245;SDS011;1635;48.000;10.582;2022-07-23T14:17:17;2.10;;;2.00;;
3245;SDS011;1635;48.000;10.582;2022-07-23T14:19:45;3.27;;;3.00;;
3245;SDS011;1635;48.000;10.582;2022-07-23T14:22:12;2.97;;;2.87;;
3245;SDS011;1635;48.000;10.582;2022-07-23T14:24:41;2.90;;;2.80;;
3245;SDS011;1635;48.000;10.582;2022-07-23T14:27:09;4.13;;;3.50;;
3245;SDS011;1635;48.000;10.582;2022-07-23T14:29:39;3.80;;;3.63;;
3245;SDS011;1635;48.000;10.582;2022-07-23T14:32:08;2.70;;;2.60;;
3245;SDS011;1635;48.000;10.582;2022-07-23T14:34:35;3.57;;;3.27;;
3245;SDS011;1635;48.000;10.582;2022-07-23T14:37:05;4.57;;;4.27;;
3245;SDS011;1635;48.000;10.582;2022-07-23T14:39:32;2.83;;;2.73;;
3245;SDS011;1635;48.000;10.582;2022-07-23T14:42:01;2.90;;;2.80;;
3245;SDS011;1635;48.000;10.582;2022-07-23T14:44:31;2.80;;;2.70;;
3245;SDS011;1635;48.000;10.582;2022-07-23T14:46:59;2.77;;;2.67;;
3245;SDS011;1635;48.000;10.582;2022-07-23T14:49:27;2.60;;;2.50;;
3245;SDS011;1635;48.000;10.582;2022-07-23T14:51:54;2.93;;;2.83;;
3245;SDS011;1635;48.000;10.582;2022-07-23T14:54:23;2.80;;;2.60;;
3245;SDS011;1635;48.000;10.582;2022-07-23T14:56:53;2.30;;;2.20;;
3245;SDS011;1635;48.000;10.582;2022-07-23T14:59:23;3.80;;;3.50;;
3245;SDS011;1635;48.000;10.582;2022-07-23T15:01:52;3.93;;;3.60;;
3245;SDS011;1635;48.000;10.582;2022-07-23T15:04:21;2.67;;;2.57;;
3245;SDS011;1635;48.000;10.582;2022-07-23T15:07:04;2.90;;;2.80;;
3245;SDS011;1635;48.000;10.582;2022-07-23T15:09:32;4.00;;;3.80;;
3245;SDS011;1635;48.000;10.582;2022-07-23T15:12:02;2.50;;;2.40;;
3245;SDS011;1635;48.000;10.582;2022-07-23T15:14:34;3.30;;;2.27;;
3245;SDS011;1635;48.000;10.582;2022-07-23T15:17:02;2.47;;;2.33;;
3245;SDS011;1635;48.000;10.582;2022-07-23T15:19:31;2.13;;;2.03;;
3245;SDS011;1635;48.000;10.582;2022-07-23T15:21:58;2.00;;;1.90;;
3245;SDS011;1635;48.000;10.582;2022-07-23T15:24:28;3.83;;;3.60;;
3245;SDS011;1635;48.000;10.582;2022-07-23T15:26:56;1.73;;;1.67;;
3245;SDS011;1635;48.000;10.582;2022-07-23T15:29:24;3.57;;;2.30;;
3245;SDS011;1635;48.000;10.582;2022-07-23T15:31:53;2.40;;;2.30;;
3245;SDS011;1635;48.000;10.582;2022-07-23T15:34:25;2.40;;;2.20;;
3245;SDS011;1635;48.000;10.582;2022-07-23T15:36:54;2.27;;;2.17;;
3245;SDS011;1635;48.000;10.582;2022-07-23T15:39:22;1.70;;;1.70;;
3245;SDS011;1635;48.000;10.582;2022-07-23T15:41:50;1.93;;;1.83;;
3245;SDS011;1635;48.000;10.582;2022-07-23T15:44:18;1.60;;;1.60;;
3245;SDS011;1635;48.000;10.582;2022-07-23T15:46:56;2.47;;;2.37;;
3245;SDS011;1635;48.000;10.582;2022-07-23T15:49:25;2.03;;;1.93;;
3245;SDS011;1635;48.000;10.582;2022-07-23T15:51:54;2.00;;;1.90;;
3245;SDS011;1635;48.000;10.582;2022-07-23T15:54:24;2.40;;;2.30;;
3245;SDS011;1635;48.000;10.582;2022-07-23T15:56:52;1.60;;;1.60;;
3245;SDS011;1635;48.000;10.582;2022-07-23T15:59:24;3.63;;;3.50;;